Shive, Texas
Current Conditions -  °F | °C
As of 10:15 AM on Sunday 23 Nov 2014 (Local Time) from KMNZ Reporting Station
Clear Clear  
Wind Chill: 66°   Ceiling: Unl
Heat Index: 66°   Visibility: 10mi
Dew Point: 45°   Wind: 20mph
Humidity: 47%   Direction: 250°WSW
Pressure: 29.61"   Gusts: 25mph
Location:  31.6401°N, 98.1198°W
Report Text: KMNZ 231615Z AUTO 25017G22KT 10SM CLR 19/07 A2961 RMK AO2 T01880074
Loading
Personal Weather Stations






























Interactive Weather Map New forecast layout! Learn more

10-Day Weather Forecast

Advertisements
Track Severe Weather on mobile